createdAt,value
2022-10-12T00:01:07.106Z,11.50
2022-10-12T00:03:35.047Z,11.49
2022-10-12T00:06:11.159Z,11.54
2022-10-12T00:08:39.355Z,11.60
2022-10-12T00:11:07.456Z,11.58
2022-10-12T00:13:34.032Z,11.62
2022-10-12T00:16:05.856Z,11.69
2022-10-12T00:18:34.034Z,11.66
2022-10-12T00:21:06.735Z,11.68
2022-10-12T00:23:35.258Z,11.80
2022-10-12T00:26:04.638Z,11.84
2022-10-12T00:28:31.747Z,11.81
2022-10-12T00:30:58.776Z,11.73
2022-10-12T00:33:25.317Z,11.60
2022-10-12T00:35:54.834Z,11.53
2022-10-12T00:38:22.535Z,11.49
2022-10-12T00:40:49.124Z,11.41
2022-10-12T00:43:29.601Z,11.42
2022-10-12T00:45:57.482Z,11.47
2022-10-12T00:48:24.547Z,11.43
2022-10-12T00:50:52.177Z,11.35
2022-10-12T00:53:22.846Z,11.27
2022-10-12T00:55:54.173Z,11.20
2022-10-12T00:58:21.716Z,11.17
2022-10-12T01:00:48.637Z,11.15
2022-10-12T01:03:20.270Z,11.17
2022-10-12T01:05:47.093Z,11.07
2022-10-12T01:08:16.118Z,10.99
2022-10-12T01:10:42.825Z,10.98
2022-10-12T01:13:09.420Z,10.99
2022-10-12T01:15:48.493Z,10.95
2022-10-12T01:18:43.558Z,11.00
2022-10-12T01:21:17.268Z,11.05
2022-10-12T01:24:14.922Z,11.21
2022-10-12T01:27:03.195Z,11.07
2022-10-12T01:30:07.328Z,10.96
2022-10-12T01:32:36.759Z,10.89
2022-10-12T01:35:28.950Z,10.78
2022-10-12T01:38:24.423Z,10.70
2022-10-12T01:40:56.871Z,10.65
2022-10-12T01:43:23.856Z,10.54
2022-10-12T01:45:50.626Z,10.37
2022-10-12T01:48:17.803Z,10.37
2022-10-12T01:50:53.829Z,10.36
2022-10-12T01:53:29.333Z,10.32
2022-10-12T01:56:21.511Z,10.33
2022-10-12T01:59:04.385Z,10.42
2022-10-12T02:01:57.829Z,10.31
2022-10-12T02:04:34.934Z,9.99
2022-10-12T02:07:07.800Z,9.89
2022-10-12T02:09:35.981Z,9.95
2022-10-12T02:12:09.101Z,10.02
2022-10-12T02:14:40.737Z,10.14
2022-10-12T02:17:11.862Z,10.12
2022-10-12T02:19:55.050Z,10.05
2022-10-12T02:22:23.547Z,10.13
2022-10-12T02:24:52.441Z,10.13
2022-10-12T02:27:21.275Z,10.16
2022-10-12T02:29:48.519Z,10.17
2022-10-12T02:32:35.627Z,10.20
2022-10-12T02:35:10.462Z,10.18
2022-10-12T02:38:20.941Z,10.12
2022-10-12T02:41:02.117Z,10.04
2022-10-12T02:43:33.058Z,9.97
2022-10-12T02:46:00.356Z,9.88
2022-10-12T02:48:29.114Z,9.71
2022-10-12T02:50:57.933Z,9.53
2022-10-12T02:53:27.771Z,9.36
2022-10-12T02:56:01.857Z,9.27
2022-10-12T02:58:28.361Z,8.95
2022-10-12T03:00:54.861Z,8.87
2022-10-12T03:03:21.414Z,8.77
2022-10-12T03:05:47.871Z,8.62
2022-10-12T03:08:14.320Z,8.59
2022-10-12T03:10:40.756Z,8.50
2022-10-12T03:13:07.166Z,8.46
2022-10-12T03:15:36.039Z,8.40
2022-10-12T03:18:02.555Z,8.44
2022-10-12T03:20:29.048Z,8.38
2022-10-12T03:22:55.914Z,8.45
2022-10-12T03:25:22.821Z,8.55
2022-10-12T03:27:49.236Z,8.65
2022-10-12T03:30:15.783Z,8.67
2022-10-12T03:32:42.318Z,8.72
2022-10-12T03:35:09.254Z,8.76
2022-10-12T03:37:35.973Z,8.84
2022-10-12T03:40:03.324Z,8.83
2022-10-12T03:42:29.832Z,8.80
2022-10-12T03:44:56.395Z,8.77
2022-10-12T03:47:22.945Z,8.83
2022-10-12T03:49:49.472Z,8.93
2022-10-12T03:52:15.996Z,9.02
2022-10-12T03:54:42.485Z,9.19
2022-10-12T03:57:08.961Z,9.25
2022-10-12T03:59:35.410Z,9.17
2022-10-12T04:02:02.513Z,9.27
2022-10-12T04:04:28.917Z,9.31
2022-10-12T04:06:55.416Z,9.30
2022-10-12T04:09:21.924Z,9.35
2022-10-12T04:11:48.421Z,9.25
2022-10-12T04:14:14.837Z,9.03
2022-10-12T04:16:41.258Z,8.87
2022-10-12T04:19:13.990Z,8.86
2022-10-12T04:21:40.992Z,8.89
2022-10-12T04:24:07.901Z,8.81
2022-10-12T04:26:34.425Z,8.81
2022-10-12T04:29:00.997Z,8.96
2022-10-12T04:31:27.585Z,8.87
2022-10-12T04:33:56.869Z,8.86
2022-10-12T04:36:24.556Z,8.79
2022-10-12T04:38:51.310Z,8.89
2022-10-12T04:41:17.857Z,8.98
2022-10-12T04:43:44.451Z,8.97
2022-10-12T04:46:11.512Z,8.98
2022-10-12T04:48:38.321Z,9.03
2022-10-12T04:51:06.167Z,8.80
2022-10-12T04:53:33.023Z,8.73
2022-10-12T04:56:03.541Z,8.70
2022-10-12T04:58:30.069Z,8.65
2022-10-12T05:00:56.907Z,8.65
2022-10-12T05:03:24.132Z,8.59
2022-10-12T05:05:51.266Z,8.55
2022-10-12T05:08:17.960Z,8.51
2022-10-12T05:10:46.168Z,8.40
2022-10-12T05:13:13.760Z,8.34
2022-10-12T05:15:42.551Z,8.24
2022-10-12T05:18:09.502Z,8.13
2022-10-12T05:20:36.216Z,8.06
2022-10-12T05:23:02.852Z,8.04
2022-10-12T05:25:29.688Z,8.04
2022-10-12T05:27:57.194Z,8.07
2022-10-12T05:30:24.585Z,8.04
2022-10-12T05:32:51.108Z,7.97
2022-10-12T05:35:17.756Z,7.99
2022-10-12T05:37:44.429Z,8.08
2022-10-12T05:40:11.563Z,8.05
2022-10-12T05:42:38.512Z,8.03
2022-10-12T05:45:06.206Z,8.06
2022-10-12T05:47:32.728Z,8.13
2022-10-12T05:49:59.261Z,8.12
2022-10-12T05:52:25.816Z,8.11
2022-10-12T05:54:52.348Z,8.25
2022-10-12T05:57:19.521Z,8.16
2022-10-12T05:59:46.326Z,8.16
2022-10-12T06:02:18.961Z,8.12
2022-10-12T06:04:45.597Z,8.22
2022-10-12T06:07:12.334Z,8.36
2022-10-12T06:09:39.039Z,8.41
2022-10-12T06:12:07.751Z,8.49
2022-10-12T06:14:34.267Z,8.48
2022-10-12T06:17:07.865Z,8.21
2022-10-12T06:19:34.442Z,8.36
2022-10-12T06:22:01.122Z,8.37
2022-10-12T06:24:27.670Z,8.56
2022-10-12T06:26:54.173Z,8.84
2022-10-12T06:29:23.353Z,8.94
2022-10-12T06:31:51.952Z,8.95
2022-10-12T06:34:18.743Z,9.08
2022-10-12T06:36:45.343Z,8.84
2022-10-12T06:39:12.014Z,8.59
2022-10-12T06:41:39.095Z,8.78
2022-10-12T06:44:05.708Z,8.99
2022-10-12T06:46:32.228Z,9.27
2022-10-12T06:48:58.715Z,9.42
2022-10-12T06:51:25.324Z,9.55
2022-10-12T06:53:55.369Z,9.50
2022-10-12T06:56:22.074Z,9.56
2022-10-12T06:58:53.971Z,9.71
2022-10-12T07:01:20.467Z,9.74
2022-10-12T07:03:46.968Z,9.69
2022-10-12T07:06:14.584Z,9.45
2022-10-12T07:08:42.070Z,9.55
2022-10-12T07:11:11.773Z,9.32
2022-10-12T07:13:38.857Z,9.41
2022-10-12T07:16:05.776Z,9.68
2022-10-12T07:18:32.588Z,9.58
2022-10-12T07:20:59.885Z,9.76
2022-10-12T07:23:27.796Z,9.89
2022-10-12T07:25:54.722Z,10.07
2022-10-12T07:28:22.211Z,10.17
2022-10-12T07:30:48.971Z,10.16
2022-10-12T07:33:16.090Z,10.26
2022-10-12T07:36:03.259Z,10.58
2022-10-12T07:38:29.815Z,10.93
2022-10-12T07:40:59.991Z,10.86
2022-10-12T07:43:27.161Z,10.71
2022-10-12T07:45:53.669Z,10.84
2022-10-12T07:48:20.879Z,10.69
2022-10-12T07:50:47.670Z,10.91
2022-10-12T07:53:14.284Z,11.02
2022-10-12T07:55:41.108Z,11.44
2022-10-12T07:58:11.893Z,11.81
2022-10-12T08:00:38.637Z,12.34
2022-10-12T08:03:05.172Z,12.11
2022-10-12T08:05:31.696Z,12.34
2022-10-12T08:08:00.246Z,13.21
2022-10-12T08:10:27.049Z,14.33
2022-10-12T08:12:53.640Z,14.81
2022-10-12T08:15:20.641Z,14.89
2022-10-12T08:17:47.336Z,14.21
2022-10-12T08:20:16.438Z,14.34
2022-10-12T08:22:43.101Z,13.84
2022-10-12T08:25:09.623Z,13.74
2022-10-12T08:27:38.454Z,15.40
2022-10-12T08:30:06.655Z,16.54
2022-10-12T08:32:33.359Z,16.47
2022-10-12T08:35:00.449Z,17.26
2022-10-12T08:37:27.066Z,17.62
2022-10-12T08:39:53.745Z,18.56
2022-10-12T08:42:55.528Z,19.44
2022-10-12T08:45:41.544Z,20.45
2022-10-12T08:48:12.257Z,20.65
2022-10-12T08:50:40.736Z,20.19
2022-10-12T08:53:26.264Z,20.05
2022-10-12T08:55:53.010Z,19.99
2022-10-12T08:58:23.232Z,21.41
2022-10-12T09:00:59.862Z,20.64
2022-10-12T09:03:40.425Z,21.00
2022-10-12T09:06:14.145Z,20.96
2022-10-12T09:09:03.055Z,20.41
2022-10-12T09:11:38.896Z,21.49
2022-10-12T09:14:06.999Z,22.00
2022-10-12T09:16:39.430Z,22.15
2022-10-12T09:19:18.969Z,21.97
2022-10-12T09:21:48.510Z,22.73
2022-10-12T09:24:41.994Z,22.59
2022-10-12T09:27:20.172Z,22.97
2022-10-12T09:29:55.339Z,22.83
2022-10-12T09:32:49.124Z,23.31
2022-10-12T09:35:16.158Z,23.14
2022-10-12T09:37:52.897Z,23.30
2022-10-12T09:40:30.486Z,22.85
2022-10-12T09:43:03.160Z,22.90
2022-10-12T09:45:35.083Z,24.26
2022-10-12T09:48:10.683Z,24.51
2022-10-12T09:50:44.692Z,23.67
2022-10-12T09:53:27.471Z,23.05
2022-10-12T09:56:28.971Z,23.15
2022-10-12T09:59:08.300Z,23.39
2022-10-12T10:01:36.260Z,22.35
2022-10-12T10:04:24.079Z,20.71
2022-10-12T10:06:51.137Z,19.40
2022-10-12T10:09:26.795Z,18.41
2022-10-12T10:11:53.588Z,18.06
2022-10-12T10:14:20.150Z,17.84
2022-10-12T10:16:51.668Z,17.69
2022-10-12T10:19:21.783Z,17.71
2022-10-12T10:21:48.418Z,17.53
2022-10-12T10:24:35.377Z,17.09
2022-10-12T10:27:04.806Z,17.33
2022-10-12T10:29:41.674Z,17.51
2022-10-12T10:32:15.750Z,17.22
2022-10-12T10:34:45.912Z,17.52
2022-10-12T10:37:23.162Z,17.34
2022-10-12T10:39:51.625Z,17.57
2022-10-12T10:42:23.340Z,17.94
2022-10-12T10:44:53.355Z,18.02
2022-10-12T10:47:20.036Z,17.60
2022-10-12T10:49:52.133Z,17.57
2022-10-12T10:52:25.857Z,18.03
2022-10-12T10:55:10.575Z,18.24
2022-10-12T10:57:41.304Z,18.33
2022-10-12T11:00:37.947Z,18.09
2022-10-12T11:03:31.296Z,18.06
2022-10-12T11:06:14.212Z,17.95
2022-10-12T11:08:43.668Z,17.78
2022-10-12T11:11:18.806Z,17.80
2022-10-12T11:13:55.748Z,17.87
2022-10-12T11:16:43.725Z,17.83
2022-10-12T11:19:34.177Z,18.09
2022-10-12T11:22:06.097Z,18.07
2022-10-12T11:24:44.041Z,17.65
2022-10-12T11:27:33.939Z,17.71
2022-10-12T11:30:11.645Z,17.54
2022-10-12T11:32:49.813Z,17.99
2022-10-12T11:35:30.375Z,18.36
2022-10-12T11:38:21.414Z,18.57
2022-10-12T11:41:31.211Z,18.57
2022-10-12T11:44:04.002Z,18.21
2022-10-12T11:46:38.592Z,18.00
2022-10-12T11:49:20.793Z,17.98
2022-10-12T11:51:50.501Z,18.35
2022-10-12T11:54:40.318Z,18.25
2022-10-12T11:57:17.695Z,18.05
2022-10-12T11:59:54.887Z,18.03
2022-10-12T12:02:38.163Z,17.88
2022-10-12T12:05:21.707Z,18.38
2022-10-12T12:11:25.231Z,18.98
2022-10-12T12:14:21.241Z,19.11
2022-10-12T12:16:49.678Z,18.97
2022-10-12T12:19:37.045Z,19.03
2022-10-12T12:22:17.044Z,19.03
2022-10-12T12:24:58.041Z,18.88
2022-10-12T12:27:32.639Z,18.47
2022-10-12T12:30:02.095Z,18.38
2022-10-12T12:32:52.271Z,18.66
2022-10-12T12:35:24.400Z,18.43
2022-10-12T12:38:20.736Z,17.90
2022-10-12T12:41:17.742Z,17.64
2022-10-12T12:43:56.415Z,18.05
2022-10-12T12:46:25.593Z,18.40
2022-10-12T12:48:52.708Z,18.62
2022-10-12T12:51:45.969Z,18.52
2022-10-12T12:54:20.631Z,18.81
2022-10-12T12:57:06.146Z,18.83
2022-10-12T13:00:06.791Z,18.82
2022-10-12T13:02:53.332Z,19.00
2022-10-12T13:06:00.049Z,18.55
2022-10-12T13:08:41.675Z,18.42
2022-10-12T13:11:45.747Z,18.36
2022-10-12T13:14:43.443Z,18.63
2022-10-12T13:17:54.330Z,18.97
2022-10-12T13:20:29.050Z,19.11
2022-10-12T13:23:02.996Z,18.98
2022-10-12T13:25:56.238Z,19.16
2022-10-12T13:28:28.797Z,19.09
2022-10-12T13:31:00.207Z,19.13
2022-10-12T13:33:39.590Z,19.27
2022-10-12T13:36:13.320Z,18.54
2022-10-12T13:38:40.535Z,18.36
2022-10-12T13:41:12.136Z,18.25
2022-10-12T13:43:46.613Z,18.30
2022-10-12T13:46:37.659Z,18.47
2022-10-12T13:49:17.677Z,18.73
2022-10-12T13:51:48.216Z,19.02
2022-10-12T13:54:27.042Z,19.05
2022-10-12T13:57:01.288Z,19.03
2022-10-12T13:59:33.459Z,18.85
2022-10-12T14:02:02.299Z,18.67
2022-10-12T14:04:35.138Z,18.88
2022-10-12T14:07:07.439Z,18.95
2022-10-12T14:09:43.533Z,18.91
2022-10-12T14:12:11.446Z,18.91
2022-10-12T14:14:42.860Z,18.55
2022-10-12T14:17:20.894Z,18.69
2022-10-12T14:19:58.895Z,18.68
2022-10-12T14:22:29.598Z,18.76
2022-10-12T14:25:08.501Z,18.76
2022-10-12T14:27:38.908Z,18.63
2022-10-12T14:30:23.400Z,18.92
2022-10-12T14:32:53.938Z,19.15
2022-10-12T14:35:26.513Z,18.94
2022-10-12T14:37:54.974Z,18.56
2022-10-12T14:40:39.207Z,18.61
2022-10-12T14:43:21.248Z,18.56
2022-10-12T14:45:47.857Z,18.57
2022-10-12T14:48:18.999Z,18.51
2022-10-12T14:50:46.483Z,18.61
2022-10-12T14:53:14.776Z,18.36
2022-10-12T14:55:42.586Z,17.96
2022-10-12T14:58:15.000Z,17.78
2022-10-12T15:00:42.547Z,17.66
2022-10-12T15:03:09.180Z,17.57
2022-10-12T15:05:35.940Z,17.52
2022-10-12T15:08:08.804Z,17.50
2022-10-12T15:10:37.021Z,17.38
2022-10-12T15:13:23.831Z,17.29
2022-10-12T15:15:52.696Z,17.26
2022-10-12T15:18:19.321Z,16.99
2022-10-12T15:20:49.378Z,16.78
2022-10-12T15:23:16.684Z,16.74
2022-10-12T15:25:56.518Z,16.80
2022-10-12T15:28:23.555Z,16.72
2022-10-12T15:33:40.500Z,16.40
2022-10-12T15:36:10.228Z,16.28
2022-10-12T15:38:37.197Z,16.27
2022-10-12T15:41:04.206Z,16.17
2022-10-12T15:43:33.684Z,16.35
2022-10-12T15:46:02.712Z,16.45
2022-10-12T15:48:30.572Z,16.29
2022-10-12T15:50:57.296Z,16.22
2022-10-12T15:53:25.720Z,16.31
2022-10-12T15:55:53.988Z,16.33
2022-10-12T15:58:20.921Z,16.39
2022-10-12T16:00:48.019Z,16.28
2022-10-12T16:03:25.886Z,16.08
2022-10-12T16:05:53.983Z,15.99
2022-10-12T16:08:20.952Z,15.99
2022-10-12T16:10:48.389Z,15.81
2022-10-12T16:13:16.364Z,15.56
2022-10-12T16:15:44.414Z,15.42
2022-10-12T16:18:11.458Z,15.40
2022-10-12T16:20:39.411Z,15.34
2022-10-12T16:23:18.953Z,15.15
2022-10-12T16:25:45.883Z,15.06
2022-10-12T16:28:12.618Z,14.95
2022-10-12T16:30:41.062Z,14.94
2022-10-12T16:33:10.642Z,14.74
2022-10-12T16:35:40.487Z,14.72
2022-10-12T16:38:09.321Z,14.69
2022-10-12T16:40:39.128Z,14.69
2022-10-12T16:43:06.150Z,14.69
2022-10-12T16:45:36.495Z,14.58
2022-10-12T16:48:03.923Z,14.57
2022-10-12T16:50:30.604Z,14.56
2022-10-12T16:52:57.956Z,14.62
2022-10-12T16:55:24.595Z,14.56
2022-10-12T16:57:51.311Z,14.51
2022-10-12T17:00:20.263Z,14.51
2022-10-12T17:02:48.027Z,14.52
2022-10-12T17:05:14.856Z,14.48
2022-10-12T17:07:41.513Z,14.49
2022-10-12T17:10:08.611Z,14.46
2022-10-12T17:12:35.880Z,14.43
2022-10-12T17:15:02.621Z,14.44
2022-10-12T17:17:29.327Z,14.41
2022-10-12T17:19:56.414Z,14.43
2022-10-12T17:22:23.041Z,14.46
2022-10-12T17:24:49.650Z,14.50
2022-10-12T17:27:16.904Z,14.48
2022-10-12T17:29:44.068Z,14.43
2022-10-12T17:36:09.414Z,14.34
2022-10-12T17:38:36.987Z,14.41
2022-10-12T17:41:05.107Z,14.39
2022-10-12T17:43:32.354Z,14.50
2022-10-12T17:46:02.184Z,14.49
2022-10-12T17:48:30.180Z,14.52
2022-10-12T17:51:02.744Z,14.40
2022-10-12T17:53:29.414Z,14.37
2022-10-12T17:56:01.130Z,14.22
2022-10-12T17:58:28.388Z,14.24
2022-10-12T18:01:03.451Z,14.17
2022-10-12T18:03:30.263Z,14.00
2022-10-12T18:06:03.444Z,13.90
2022-10-12T18:08:30.366Z,13.77
2022-10-12T18:11:00.777Z,13.66
2022-10-12T18:13:28.875Z,13.61
2022-10-12T18:15:55.987Z,13.52
2022-10-12T18:18:22.666Z,13.39
2022-10-12T18:20:49.649Z,13.50
2022-10-12T18:23:16.319Z,13.59
2022-10-12T18:25:43.703Z,13.62
2022-10-12T18:28:11.735Z,13.66
2022-10-12T18:30:45.590Z,13.58
2022-10-12T18:33:12.238Z,13.27
2022-10-12T18:35:38.721Z,13.24
2022-10-12T18:38:05.316Z,13.26
2022-10-12T18:40:36.567Z,13.08
2022-10-12T18:43:06.012Z,13.15
2022-10-12T18:45:35.185Z,13.17
2022-10-12T18:48:06.383Z,13.23
2022-10-12T18:50:35.337Z,13.25
2022-10-12T18:53:01.921Z,13.13
2022-10-12T18:55:28.524Z,13.02
2022-10-12T18:57:55.255Z,12.90
2022-10-12T19:00:26.421Z,12.84
2022-10-12T19:02:52.954Z,12.90
2022-10-12T19:05:19.552Z,12.88
2022-10-12T19:07:45.993Z,12.95
2022-10-12T19:10:12.637Z,12.96
2022-10-12T19:12:43.375Z,12.90
2022-10-12T19:15:12.125Z,12.78
2022-10-12T19:17:38.532Z,12.86
2022-10-12T19:20:05.479Z,12.83
2022-10-12T19:22:31.937Z,12.70
2022-10-12T19:24:59.919Z,12.65
2022-10-12T19:27:26.442Z,12.66
2022-10-12T19:29:52.978Z,12.56
2022-10-12T19:32:19.861Z,12.47
2022-10-12T19:34:50.025Z,12.51
2022-10-12T19:37:16.548Z,12.58
2022-10-12T19:39:45.009Z,12.60
2022-10-12T19:42:11.440Z,12.57
2022-10-12T19:44:38.075Z,12.50
2022-10-12T19:47:04.899Z,12.38
2022-10-12T19:49:36.433Z,12.28
2022-10-12T19:52:03.872Z,12.27
2022-10-12T19:54:34.078Z,12.32
2022-10-12T19:57:05.666Z,12.40
2022-10-12T19:59:32.143Z,12.39
2022-10-12T20:02:01.976Z,12.39
2022-10-12T20:04:30.062Z,12.44
2022-10-12T20:06:56.718Z,12.48
2022-10-12T20:09:23.243Z,12.39
2022-10-12T20:11:50.044Z,12.32
2022-10-12T20:14:18.877Z,12.32
2022-10-12T20:16:45.523Z,12.27
2022-10-12T20:19:12.216Z,12.21
2022-10-12T20:21:38.860Z,12.08
2022-10-12T20:24:11.949Z,12.08
2022-10-12T20:26:38.800Z,12.11
2022-10-12T20:29:05.351Z,12.09
2022-10-12T20:31:31.942Z,12.07
2022-10-12T20:33:58.607Z,12.03
2022-10-12T20:36:28.438Z,12.02
2022-10-12T20:38:55.442Z,12.13
2022-10-12T20:41:23.175Z,12.06
2022-10-12T20:43:49.654Z,11.98
2022-10-12T20:46:18.461Z,11.93
2022-10-12T20:48:45.688Z,11.89
2022-10-12T20:51:28.908Z,11.79
2022-10-12T20:53:59.048Z,11.81
2022-10-12T20:56:27.348Z,11.79
2022-10-12T20:58:55.359Z,11.65
2022-10-12T21:01:23.000Z,11.63
2022-10-12T21:03:49.705Z,11.52
2022-10-12T21:06:17.357Z,11.53
2022-10-12T21:08:43.811Z,11.55
2022-10-12T21:11:11.037Z,11.59
2022-10-12T21:13:42.282Z,11.60
2022-10-12T21:16:13.369Z,11.52
2022-10-12T21:18:41.320Z,11.50
2022-10-12T21:21:12.838Z,11.51
2022-10-12T21:23:41.210Z,11.50
2022-10-12T21:26:12.580Z,11.51
2022-10-12T21:28:39.417Z,11.61
2022-10-12T21:31:06.170Z,11.75
2022-10-12T21:33:35.065Z,11.80
2022-10-12T21:36:07.849Z,11.91
2022-10-12T21:38:34.625Z,11.83
2022-10-12T21:41:01.192Z,11.90
2022-10-12T21:43:27.636Z,11.90
2022-10-12T21:45:56.274Z,11.98
2022-10-12T21:48:22.785Z,11.95
2022-10-12T21:50:49.301Z,11.94
2022-10-12T21:53:15.957Z,11.91
2022-10-12T21:55:42.383Z,11.87
2022-10-12T21:58:08.847Z,11.92
2022-10-12T22:00:35.339Z,11.83
2022-10-12T22:03:02.032Z,11.76
2022-10-12T22:05:28.578Z,11.68
2022-10-12T22:07:57.998Z,11.64
2022-10-12T22:10:24.706Z,11.75
2022-10-12T22:12:51.271Z,11.70
2022-10-12T22:15:17.822Z,11.56
2022-10-12T22:17:44.253Z,11.43
2022-10-12T22:20:11.328Z,11.41
2022-10-12T22:22:38.154Z,11.35
2022-10-12T22:25:05.080Z,11.23
2022-10-12T22:27:31.735Z,11.21
2022-10-12T22:30:01.612Z,11.15
2022-10-12T22:32:28.145Z,11.09
2022-10-12T22:34:54.771Z,11.04
2022-10-12T22:37:22.082Z,11.04
2022-10-12T22:39:48.635Z,11.02
2022-10-12T22:42:15.140Z,11.06
2022-10-12T22:44:41.600Z,11.11
2022-10-12T22:47:08.082Z,11.13
2022-10-12T22:49:34.618Z,11.14
2022-10-12T22:52:01.116Z,11.13
2022-10-12T22:54:27.707Z,11.06
2022-10-12T22:56:54.383Z,11.03
2022-10-12T22:59:20.944Z,10.98
2022-10-12T23:01:47.570Z,11.01
2022-10-12T23:04:14.146Z,10.94
2022-10-12T23:06:40.655Z,10.95
2022-10-12T23:09:07.298Z,11.00
2022-10-12T23:11:33.882Z,10.98
2022-10-12T23:14:00.845Z,11.00
2022-10-12T23:16:30.004Z,11.02
2022-10-12T23:18:59.706Z,11.05
2022-10-12T23:21:27.914Z,11.01
2022-10-12T23:23:54.558Z,10.91
2022-10-12T23:26:23.268Z,10.88
2022-10-12T23:28:50.757Z,10.89
2022-10-12T23:31:22.232Z,10.83
2022-10-12T23:33:48.895Z,10.87
2022-10-12T23:36:17.420Z,10.94
2022-10-12T23:38:44.724Z,10.94
2022-10-12T23:41:12.294Z,10.81
2022-10-12T23:43:38.889Z,10.65
2022-10-12T23:46:05.752Z,10.57
2022-10-12T23:48:33.264Z,10.55
2022-10-12T23:51:00.369Z,10.61
2022-10-12T23:53:27.323Z,10.64
2022-10-12T23:55:54.428Z,10.68
2022-10-12T23:58:21.174Z,10.72
